Time,TemperatureF,DewpointF,PressureIn,WindDirection,WindDirectionDegrees,WindSpeedMPH,WindSpeedGustMPH,Humidity,HourlyPrecipIn,Conditions,Clouds,dailyrainin,SolarRadiationWatts/m^2,SoftwareType,DateUTC
2013-04-03 00:12:00,27.0,21.0,-100.00,North,358,0.0,2.0,79,0.00,,,0.00,0.000000,,2013-04-03 06:12:00,
2013-04-03 00:22:00,27.0,21.0,-100.00,North,358,0.0,2.0,79,0.00,,,0.00,0.000000,,2013-04-03 06:22:00,
2013-04-03 00:32:00,27.0,21.0,-100.00,North,358,0.0,2.0,79,0.00,,,0.00,0.000000,,2013-04-03 06:32:00,
2013-04-03 00:42:00,27.0,21.0,-100.00,North,358,0.0,2.0,79,0.00,,,0.00,0.000000,,2013-04-03 06:42:00,
2013-04-03 01:12:00,26.0,22.0,-100.00,North,357,0.0,2.0,84,0.00,,,0.00,0.000000,,2013-04-03 07:12:00,
2013-04-03 01:22:00,26.0,22.0,-100.00,North,357,0.0,2.0,84,0.00,,,0.00,0.000000,,2013-04-03 07:22:00,
2013-04-03 01:32:00,26.0,22.0,-100.00,North,357,0.0,2.0,84,0.00,,,0.00,0.000000,,2013-04-03 07:32:00,
2013-04-03 01:42:00,26.0,22.0,-100.00,North,357,0.0,2.0,84,0.00,,,0.00,0.000000,,2013-04-03 07:42:00,
2013-04-03 02:12:00,25.0,21.0,-100.00,NNE,16,0.0,2.0,85,0.00,,,0.00,0.000000,,2013-04-03 08:12:00,
2013-04-03 02:22:00,25.0,21.0,-100.00,NNE,16,0.0,2.0,85,0.00,,,0.00,0.000000,,2013-04-03 08:22:00,
2013-04-03 02:32:00,25.0,21.0,-100.00,NNE,16,0.0,2.0,85,0.00,,,0.00,0.000000,,2013-04-03 08:32:00,
2013-04-03 02:42:00,25.0,21.0,-100.00,NNE,16,0.0,2.0,85,0.00,,,0.00,0.000000,,2013-04-03 08:42:00,
2013-04-03 03:12:00,25.0,22.0,-100.00,North,351,0.0,2.0,87,-99.99,,,0.00,0.000000,,2013-04-03 09:12:00,
2013-04-03 03:22:00,25.0,22.0,-100.00,North,351,0.0,2.0,87,-99.99,,,0.00,0.000000,,2013-04-03 09:22:00,
2013-04-03 03:32:00,25.0,22.0,-100.00,North,351,0.0,2.0,87,-99.99,,,0.00,0.000000,,2013-04-03 09:32:00,
2013-04-03 04:12:00,25.0,22.0,-100.00,NE,34,0.0,3.0,88,0.00,,,0.00,0.000000,,2013-04-03 10:12:00,
2013-04-03 04:22:00,25.0,22.0,-100.00,NE,34,0.0,3.0,88,0.00,,,0.00,0.000000,,2013-04-03 10:22:00,
2013-04-03 04:33:00,25.0,22.0,-100.00,NE,34,0.0,3.0,88,0.00,,,0.00,0.000000,,2013-04-03 10:33:00,
2013-04-03 04:42:00,25.0,22.0,-100.00,NE,34,0.0,3.0,88,0.00,,,0.00,0.000000,,2013-04-03 10:42:00,
2013-04-03 05:12:00,23.0,21.0,-100.00,North,359,0.0,2.0,90,0.00,,,0.00,0.000000,,2013-04-03 11:12:00,
2013-04-03 05:22:00,23.0,21.0,-100.00,North,359,0.0,2.0,90,0.00,,,0.00,0.000000,,2013-04-03 11:22:00,
2013-04-03 05:32:00,23.0,21.0,-100.00,North,359,0.0,2.0,90,0.00,,,0.00,0.000000,,2013-04-03 11:32:00,
2013-04-03 05:42:00,23.0,21.0,-100.00,North,359,0.0,2.0,90,0.00,,,0.00,0.000000,,2013-04-03 11:42:00,
2013-04-03 06:12:00,22.0,20.0,-100.00,NNW,340,0.0,2.0,92,0.00,,,0.00,0.000000,,2013-04-03 12:12:00,
2013-04-03 06:22:00,22.0,20.0,-100.00,NNW,340,0.0,2.0,92,0.00,,,0.00,0.000000,,2013-04-03 12:22:00,
2013-04-03 06:32:00,22.0,20.0,-100.00,NNW,340,0.0,2.0,92,0.00,,,0.00,0.000000,,2013-04-03 12:32:00,
2013-04-03 06:42:00,22.0,20.0,-100.00,NNW,340,0.0,2.0,92,0.00,,,0.00,0.000000,,2013-04-03 12:42:00,
2013-04-03 07:12:00,22.0,21.0,-100.00,NNE,14,0.0,2.0,94,0.00,,,0.00,0.000000,,2013-04-03 13:12:00,
2013-04-03 07:22:00,22.0,21.0,-100.00,NNE,14,0.0,2.0,94,0.00,,,0.00,0.000000,,2013-04-03 13:22:00,
2013-04-03 07:32:00,22.0,21.0,-100.00,NNE,14,0.0,2.0,94,0.00,,,0.00,0.000000,,2013-04-03 13:32:00,
2013-04-03 07:42:00,22.0,21.0,-100.00,NNE,14,0.0,2.0,94,0.00,,,0.00,0.000000,,2013-04-03 13:42:00,
2013-04-03 08:12:00,24.0,22.0,-100.00,North,5,0.0,0.0,92,0.00,,,0.00,15.000000,,2013-04-03 14:12:00,
2013-04-03 08:22:00,24.0,22.0,-100.00,North,5,0.0,0.0,92,0.00,,,0.00,15.000000,,2013-04-03 14:22:00,
2013-04-03 08:32:00,24.0,22.0,-100.00,North,5,0.0,0.0,92,0.00,,,0.00,15.000000,,2013-04-03 14:32:00,
2013-04-03 08:42:00,24.0,22.0,-100.00,North,5,0.0,0.0,92,0.00,,,0.00,15.000000,,2013-04-03 14:42:00,
2013-04-03 09:12:00,31.0,26.0,-100.00,NE,44,0.0,2.0,82,0.00,,,0.00,80.000000,,2013-04-03 15:12:00,
2013-04-03 09:22:00,31.0,26.0,-100.00,NE,44,0.0,2.0,82,0.00,,,0.00,80.000000,,2013-04-03 15:22:00,
2013-04-03 09:33:00,31.0,26.0,-100.00,NE,44,0.0,2.0,82,0.00,,,0.00,80.000000,,2013-04-03 15:33:00,
2013-04-03 09:42:00,31.0,26.0,-100.00,NE,44,0.0,2.0,82,0.00,,,0.00,80.000000,,2013-04-03 15:42:00,
2013-04-03 10:12:00,48.0,28.0,-100.00,WSW,257,1.0,4.0,46,0.00,,,0.00,304.000000,,2013-04-03 16:12:00,
2013-04-03 10:23:00,48.0,28.0,-100.00,WSW,257,1.0,4.0,46,0.00,,,0.00,304.000000,,2013-04-03 16:23:00,
2013-04-03 10:43:00,48.0,28.0,-100.00,WSW,257,1.0,4.0,46,0.00,,,0.00,304.000000,,2013-04-03 16:43:00,
2013-04-03 11:13:00,52.0,28.0,-100.00,SSW,203,3.0,8.0,39,0.00,,,0.00,524.000000,,2013-04-03 17:13:00,
2013-04-03 11:22:00,52.0,28.0,-100.00,SSW,203,3.0,8.0,39,0.00,,,0.00,524.000000,,2013-04-03 17:22:00,
2013-04-03 11:32:00,52.0,28.0,-100.00,SSW,203,3.0,8.0,39,0.00,,,0.00,524.000000,,2013-04-03 17:32:00,
2013-04-03 12:12:00,52.0,27.0,-100.00,SW,225,4.0,9.0,38,0.00,,,0.00,569.000000,,2013-04-03 18:12:00,
2013-04-03 12:22:00,52.0,27.0,-100.00,SW,225,4.0,9.0,38,0.00,,,0.00,569.000000,,2013-04-03 18:22:00,
2013-04-03 12:33:00,52.0,27.0,-100.00,SW,225,4.0,9.0,38,0.00,,,0.00,569.000000,,2013-04-03 18:33:00,
2013-04-03 12:42:00,52.0,27.0,-100.00,SW,225,4.0,9.0,38,0.00,,,0.00,569.000000,,2013-04-03 18:42:00,
2013-04-03 13:12:00,51.0,28.0,-100.00,SW,230,4.0,10.0,40,0.00,,,0.00,587.000000,,2013-04-03 19:12:00,
2013-04-03 13:22:00,51.0,28.0,-100.00,SW,230,4.0,10.0,40,0.00,,,0.00,587.000000,,2013-04-03 19:22:00,
2013-04-03 13:32:00,51.0,28.0,-100.00,SW,230,4.0,10.0,40,0.00,,,0.00,587.000000,,2013-04-03 19:32:00,
2013-04-03 13:42:00,51.0,28.0,-100.00,SW,230,4.0,10.0,40,0.00,,,0.00,587.000000,,2013-04-03 19:42:00,
2013-04-03 14:12:00,55.0,29.0,-100.00,SSW,210,3.0,7.0,36,0.00,,,0.00,643.000000,,2013-04-03 20:12:00,
2013-04-03 14:22:00,55.0,29.0,-100.00,SSW,210,3.0,7.0,36,0.00,,,0.00,643.000000,,2013-04-03 20:22:00,
2013-04-03 14:32:00,55.0,29.0,-100.00,SSW,210,3.0,7.0,36,0.00,,,0.00,643.000000,,2013-04-03 20:32:00,
2013-04-03 14:42:00,55.0,29.0,-100.00,SSW,210,3.0,7.0,36,0.00,,,0.00,643.000000,,2013-04-03 20:42:00,
2013-04-03 15:12:00,56.0,27.0,-100.00,West,273,3.0,8.0,32,0.00,,,0.00,813.000000,,2013-04-03 21:12:00,
2013-04-03 15:22:00,56.0,27.0,-100.00,West,273,3.0,8.0,32,0.00,,,0.00,813.000000,,2013-04-03 21:22:00,
2013-04-03 15:32:00,56.0,27.0,-100.00,West,273,3.0,8.0,32,0.00,,,0.00,813.000000,,2013-04-03 21:32:00,
2013-04-03 15:42:00,56.0,27.0,-100.00,West,273,3.0,8.0,32,0.00,,,0.00,813.000000,,2013-04-03 21:42:00,
2013-04-03 16:12:00,58.0,24.0,-100.00,SSE,163,3.0,10.0,27,0.00,,,0.00,755.000000,,2013-04-03 22:12:00,
2013-04-03 16:22:00,58.0,24.0,-100.00,SSE,163,3.0,10.0,27,0.00,,,0.00,755.000000,,2013-04-03 22:22:00,
2013-04-03 16:32:00,58.0,24.0,-100.00,SSE,163,3.0,10.0,27,0.00,,,0.00,755.000000,,2013-04-03 22:32:00,
2013-04-03 16:42:00,58.0,24.0,-100.00,SSE,163,3.0,10.0,27,0.00,,,0.00,755.000000,,2013-04-03 22:42:00,
2013-04-03 17:12:00,54.0,25.0,-100.00,WSW,244,4.0,11.0,32,0.00,,,0.00,589.000000,,2013-04-03 23:12:00,
2013-04-03 17:22:00,54.0,25.0,-100.00,WSW,244,4.0,11.0,32,0.00,,,0.00,589.000000,,2013-04-03 23:22:00,
2013-04-03 17:32:00,54.0,25.0,-100.00,WSW,244,4.0,11.0,32,0.00,,,0.00,589.000000,,2013-04-03 23:32:00,
2013-04-03 17:42:00,54.0,25.0,-100.00,WSW,244,4.0,11.0,32,0.00,,,0.00,589.000000,,2013-04-03 23:42:00,
2013-04-03 18:12:00,52.0,23.0,-100.00,WNW,284,2.0,9.0,32,0.00,,,0.00,194.000000,,2013-04-04 00:12:00,
2013-04-03 18:22:00,52.0,23.0,-100.00,WNW,284,2.0,9.0,32,0.00,,,0.00,194.000000,,2013-04-04 00:22:00,
2013-04-03 18:32:00,52.0,23.0,-100.00,WNW,284,2.0,9.0,32,0.00,,,0.00,194.000000,,2013-04-04 00:32:00,
2013-04-03 18:42:00,52.0,23.0,-100.00,WNW,284,2.0,9.0,32,0.00,,,0.00,194.000000,,2013-04-04 00:42:00,
2013-04-03 19:11:00,49.0,24.0,-100.00,SW,223,1.0,9.0,37,0.00,,,0.00,148.000000,,2013-04-04 01:11:00,
2013-04-03 19:22:00,49.0,24.0,-100.00,SW,223,1.0,9.0,37,0.00,,,0.00,148.000000,,2013-04-04 01:22:00,
2013-04-03 19:32:00,49.0,24.0,-100.00,SW,223,1.0,9.0,37,0.00,,,0.00,148.000000,,2013-04-04 01:32:00,
2013-04-03 19:43:00,49.0,24.0,-100.00,SW,223,1.0,9.0,37,0.00,,,0.00,148.000000,,2013-04-04 01:43:00,
2013-04-03 20:12:00,42.0,26.0,-100.00,SE,128,0.0,2.0,53,0.00,,,0.00,30.000000,,2013-04-04 02:12:00,
2013-04-03 20:22:00,42.0,26.0,-100.00,SE,128,0.0,2.0,53,0.00,,,0.00,30.000000,,2013-04-04 02:22:00,
2013-04-03 20:32:00,42.0,26.0,-100.00,SE,128,0.0,2.0,53,0.00,,,0.00,30.000000,,2013-04-04 02:32:00,
2013-04-03 20:42:00,42.0,26.0,-100.00,SE,128,0.0,2.0,53,0.00,,,0.00,30.000000,,2013-04-04 02:42:00,
2013-04-03 21:12:00,40.0,29.0,-100.00,SE,127,0.0,7.0,64,0.00,,,0.00,1.000000,,2013-04-04 03:12:00,
2013-04-03 21:22:00,40.0,29.0,-100.00,SE,127,0.0,7.0,64,0.00,,,0.00,1.000000,,2013-04-04 03:22:00,
2013-04-03 21:33:00,40.0,29.0,-100.00,SE,127,0.0,7.0,64,0.00,,,0.00,1.000000,,2013-04-04 03:33:00,
2013-04-03 21:43:00,40.0,29.0,-100.00,SE,127,0.0,7.0,64,0.00,,,0.00,1.000000,,2013-04-04 03:43:00,
2013-04-03 22:12:00,33.0,27.0,-100.00,North,5,0.0,2.0,79,0.00,,,0.00,0.000000,,2013-04-04 04:12:00,
2013-04-03 22:22:00,33.0,27.0,-100.00,North,5,0.0,2.0,79,0.00,,,0.00,0.000000,,2013-04-04 04:22:00,
2013-04-03 22:33:00,33.0,27.0,-100.00,North,5,0.0,2.0,79,0.00,,,0.00,0.000000,,2013-04-04 04:33:00,
2013-04-03 23:12:00,31.0,27.0,-100.00,North,349,1.0,3.0,85,0.00,,,0.00,0.000000,,2013-04-04 05:12:00,
2013-04-03 23:22:00,31.0,27.0,-100.00,North,349,1.0,3.0,85,0.00,,,0.00,0.000000,,2013-04-04 05:22:00,
2013-04-03 23:42:00,31.0,27.0,-100.00,North,349,1.0,3.0,85,0.00,,,0.00,0.000000,,2013-04-04 05:42:00,